EW4060 Weather Reports


Display with metric or nautical units.
time (UTC)temp
F
wind
direction
speed
MPH
gust
MPH
rain 1hr
in
rain 24hr
in
rain mn
in
humidity
%
barometer
mb
20190224053031 27 334 9.0 10.0 0.00 0.00 0.00 95 1000.5
20190224052531 27 36 4.0 11.0 0.00 0.00 0.00 95 1000.4
20190224052031 27 360 8.0 11.0 0.00 0.00 0.00 95 1000.5
20190224051531 27 332 10.0 11.0 0.00 0.00 0.00 95 1000.5
20190224051033 27 333 8.0 11.0 0.00 0.00 0.00 95 1000.7
20190224050531 27 344 8.0 11.0 0.00 0.00 0.00 95 1000.8
20190224050032 27 342 9.0 12.0 0.00 0.00 0.00 95 1001.1
20190224045532 27 351 6.0 12.0 0.00 0.00 0.00 95 1001.3
20190224045032 27 355 6.0 10.0 0.00 0.00 0.00 95 1001.5
20190224044532 27 340 5.0 10.0 0.00 0.00 0.00 95 1001.8
20190224044032 27 343 6.0 8.0 0.00 0.00 0.00 95 1002.1
20190224043532 27 25 3.0 8.0 0.00 0.00 0.00 95 1002.2
20190224043032 27 69 2.0 8.0 0.00 0.00 0.00 95 1002.2
20190224042533 27 348 5.0 9.0 0.00 0.00 0.00 95 1002.2
20190224042032 27 338 4.0 10.0 0.00 0.00 0.00 95 1001.9
20190224041533 27 17 4.0 10.0 0.00 0.00 0.00 95 1002.1
20190224041032 27 348 10.0 10.0 0.00 0.00 0.00 95 1002.3
20190224040532 27 340 6.0 10.0 0.00 0.00 0.00 95 1002.3
20190224040031 27 40 2.0 10.0 0.00 0.00 0.00 95 1002.4
20190224035531 27 344 6.0 10.0 0.00 0.00 0.00 95 1002.5
20190224035031 27 338 9.0 10.0 0.00 0.00 0.00 95 1002.7
20190224034532 27 360 5.0 10.0 0.00 0.00 0.00 95 1002.8
20190224034032 27 322 8.0 10.0 0.00 0.00 0.00 95 1003.0
20190224033531 27 348 8.0 9.0 0.00 0.00 0.00 95 1003.3
20190224033031 27 350 4.0 9.0 0.00 0.00 0.00 95 1003.5
20190224032532 27 346 5.0 9.0 0.00 0.00 0.00 95 1003.6
20190224032031 28 344 5.0 9.0 0.00 0.00 0.00 95 1003.9
20190224031531 28 338 4.0 7.0 0.00 0.00 0.00 95 1004.0
20190224031031 28 5 2.0 8.0 0.00 0.00 0.00 95 1004.2
20190224030531 28 337 5.0 9.0 0.00 0.00 0.00 95 1004.2
20190224030031 28 346 4.0 9.0 0.00 0.00 0.00 95 1004.2
20190224025531 28 25 2.0 8.0 0.00 0.00 0.00 95 1004.2
20190224025031 28 342 5.0 8.0 0.00 0.00 0.00 95 1004.3
20190224024531 28 348 4.0 8.0 0.00 0.00 0.00 95 1004.4
20190224024031 28 360 4.0 8.0 0.00 0.00 0.00 95 1004.4
20190224023531 28 348 4.0 6.0 0.00 0.00 0.00 95 1004.5
20190224023031 28 14 3.0 5.0 0.00 0.00 0.00 95 1004.7
20190224022531 28 22 2.0 6.0 0.00 0.00 0.00 95 1004.9
20190224022031 28 347 4.0 8.0 0.00 0.00 0.00 95 1004.9
20190224021531 28 340 4.0 8.0 0.00 0.00 0.00 95 1005.1
20190224021031 28 344 4.0 6.0 0.00 0.00 0.00 94 1005.3
20190224020531 28 346 5.0 6.0 0.00 0.00 0.00 94 1005.3
20190224020031 28 17 2.0 5.0 0.00 0.00 0.00 94 1005.6
20190224015532 28 355 3.0 6.0 0.00 0.00 0.00 94 1005.5
20190224015031 28 349 3.0 6.0 0.00 0.00 0.00 94 1005.5
20190224014531 28 346 3.0 5.0 0.00 0.00 0.00 94 1005.6
20190224014031 28 360 2.0 5.0 0.00 0.00 0.00 94 1005.7
20190224013531 28 344 3.0 4.0 0.00 0.00 0.00 94 1005.8
20190224013031 28 350 2.0 3.0 0.00 0.00 0.00 94 1005.9
20190224012532 28 44 1.0 2.0 0.00 0.00 0.00 94 1006.0
20190224012031 28 44 0.0 2.0 0.00 0.00 0.00 94 1006.3
20190224011531 28 44 0.0 3.0 0.00 0.00 0.00 94 1006.5
20190224011032 28 44 2.0 3.0 0.00 0.00 0.00 94 1006.6
20190224010532 28 44 2.0 2.0 0.00 0.00 0.00 94 1006.7
20190224010032 28 46 0.0 1.0 0.00 0.00 0.00 94 1006.8
20190224005532 28 46 0.0 1.0 0.00 0.00 0.00 94 1007.0
20190224005031 28 46 0.0 1.0 0.00 0.00 0.00 94 1007.0
20190224004531 28 46 0.0 2.0 0.00 0.00 0.00 94 1007.1
20190224004031 28 46 1.0 3.0 0.00 0.00 0.00 94 1007.2
20190224003531 28 46 0.0 3.0 0.00 0.00 0.00 93 1007.2
20190224003031 28 11 0.0 3.0 0.00 0.00 0.00 93 1007.3
20190224002532 28 11 0.0 3.0 0.00 0.00 0.00 93 1007.3
20190224002032 28 11 0.0 3.0 0.00 0.00 0.00 93 1007.1
20190224001532 28 43 1.0 2.0 0.00 0.00 0.00 93 1007.2
20190224001031 28 43 0.0 3.0 0.00 0.00 0.00 93 1007.1
20190224000532 28 36 0.0 3.0 0.00 0.00 0.00 93 1007.2
20190224000031 28 16 0.0 4.0 0.00 0.00 0.00 93 1007.1
20190223235531 28 17 0.0 4.0 0.00 0.00 0.00 93 1007.1
20190223235031 29 35 2.0 4.0 0.00 0.00 0.00 93 1007.2
20190223234531 29 47 0.0 4.0 0.00 0.00 0.00 93 1007.3
20190223234031 29 40 0.0 5.0 0.00 0.00 0.00 93 1007.3
20190223233531 29 39 2.0 5.0 0.00 0.00 0.00 92 1007.4
20190223233031 29 44 2.0 5.0 0.00 0.00 0.00 92 1007.4
20190223232531 29 360 2.0 4.0 0.00 0.00 0.00 92 1007.5
20190223232031 29 15 1.0 6.0 0.00 0.00 0.00 92 1007.6
20190223231531 29 12 1.0 6.0 0.00 0.00 0.00 92 1007.8
20190223231031 29 36 2.0 4.0 0.00 0.00 0.00 91 1008.1
20190223230531 29 17 0.0 3.0 0.00 0.00 0.00 91 1008.3
20190223230031 30 17 0.0 4.0 0.00 0.00 0.00 91 1008.3
20190223225531 30 17 0.0 4.0 0.00 0.00 0.00 91 1008.5
20190223225031 30 5 2.0 4.0 0.00 0.00 0.00 90 1008.7
20190223224531 30 63 1.0 2.0 0.00 0.00 0.00 90 1008.8
20190223224031 30 65 0.0 3.0 0.00 0.00 0.00 90 1008.9
20190223223531 30 65 0.0 3.0 0.00 0.00 0.00 90 1008.9
20190223223031 30 42 1.0 3.0 0.00 0.00 0.00 89 1009.0
20190223222532 30 355 0.0 3.0 0.00 0.00 0.00 89 1009.1
20190223222031 31 348 0.0 4.0 0.00 0.00 0.00 89 1009.1
20190223221531 30 348 2.0 4.0 0.00 0.00 0.00 89 1009.0
20190223221031 31 348 0.0 2.0 0.00 0.00 0.00 88 1009.4
20190223220531 30 348 0.0 4.0 0.00 0.00 0.00 88 1009.4
20190223220031 30 348 0.0 4.0 0.00 0.00 0.00 88 1009.3
20190223215532 30 349 0.0 4.0 0.00 0.00 0.00 88 1009.2
20190223215031 30 349 2.0 5.0 0.00 0.00 0.00 88 1009.2
20190223214531 30 340 4.0 5.0 0.00 0.00 0.00 88 1009.3
20190223214031 30 342 2.0 5.0 0.00 0.00 0.00 88 1009.5
20190223213531 31 340 3.0 4.0 0.00 0.00 0.00 88 1009.9
20190223213031 31 344 1.0 3.0 0.00 0.00 0.00 89 1010.1
20190223212531 31 344 0.0 3.0 0.00 0.00 0.00 89 1010.1
20190223212034 31 344 0.0 2.0 0.00 0.00 0.00 89 1010.1
20190223211531 31 344 0.0 1.0 0.00 0.00 0.00 89 1010.2
20190223211031 31 344 0.0 1.0 0.00 0.00 0.00 89 1010.3
20190223210532 31 344 1.0 2.0 0.00 0.00 0.00 89 1010.3
20190223210030 31 344 1.0 3.0 0.00 0.00 0.00 88 1010.3
20190223205532 31 344 0.0 3.0 0.00 0.00 0.00 87 1010.3
20190223205031 31 344 0.0 4.0 0.00 0.00 0.00 87 1010.3
20190223204532 31 344 2.0 4.0 0.00 0.00 0.00 88 1010.3
20190223204031 31 344 0.0 3.0 0.00 0.00 0.00 87 1010.3
20190223203531 31 344 0.0 2.0 0.00 0.00 0.00 87 1010.4
20190223203031 31 344 0.0 2.0 0.00 0.00 0.00 87 1010.5
20190223202531 31 344 0.0 2.0 0.00 0.00 0.00 87 1010.7
20190223202031 31 344 0.0 2.0 0.00 0.00 0.00 86 1011.1
20190223201530 31 344 0.0 4.0 0.00 0.00 0.00 86 1011.1
20190223201031 32 344 1.0 4.0 0.00 0.00 0.00 85 1011.2
20190223200531 32 345 2.0 5.0 0.00 0.00 0.00 83 1011.4
20190223200032 33 355 2.0 5.0 0.00 0.00 0.00 82 1011.3
20190223195531 33 92 0.0 1.0 0.00 0.00 0.00 80 1011.2
20190223195031 33 92 0.0 2.0 0.00 0.00 0.00 80 1011.1
20190223194532 33 92 0.0 2.0 0.00 0.00 0.00 80 1011.1
20190223194031 33 92 0.0 1.0 0.00 0.00 0.00 80 1011.0
20190223193531 33 92 0.0 2.0 0.00 0.00 0.00 80 1011.2
20190223193031 33 92 0.0 2.0 0.00 0.00 0.00 79 1011.5
20190223192531 33 92 0.0 0.0 0.00 0.00 0.00 79 1011.6
20190223192030 33 92 0.0 1.0 0.00 0.00 0.00 80 1011.5
20190223191530 33 92 0.0 1.0 0.00 0.00 0.00 81 1011.8
20190223191031 33 92 0.0 1.0 0.00 0.00 0.00 80 1012.0
20190223190531 33 92 0.0 1.0 0.00 0.00 0.00 82 1012.0
20190223190031 33 92 0.0 2.0 0.00 0.00 0.00 82 1012.2
20190223185531 33 92 0.0 2.0 0.00 0.00 0.00 82 1012.3
20190223185031 33 92 0.0 1.0 0.00 0.00 0.00 83 1012.4
20190223184532 33 92 0.0 1.0 0.00 0.00 0.00 81 1012.5
20190223184031 33 92 0.0 1.0 0.00 0.00 0.00 81 1012.6
20190223183531 33 92 0.0 3.0 0.00 0.00 0.00 81 1012.6
20190223183031 33 92 1.0 3.0 0.00 0.00 0.00 81 1012.8
20190223182531 33 92 0.0 2.0 0.00 0.00 0.00 83 1013.0
20190223182031 33 92 0.0 3.0 0.00 0.00 0.00 82 1013.1
20190223181531 33 92 1.0 3.0 0.00 0.00 0.00 82 1013.3
20190223181032 33 91 0.0 3.0 0.00 0.00 0.00 82 1013.6
20190223180532 33 91 1.0 2.0 0.00 0.00 0.00 81 1013.7
20190223180034 33 117 0.0 2.0 0.00 0.00 0.00 82 1013.7
20190223175531 33 115 1.0 2.0 0.00 0.00 0.00 82 1014.0
20190223175031 32 109 0.0 3.0 0.00 0.00 0.00 81 1014.1
20190223174531 32 109 0.0 3.0 0.00 0.00 0.00 82 1014.2
20190223174031 32 109 0.0 4.0 0.00 0.00 0.00 82 1014.3
20190223173530 32 111 0.0 4.0 0.00 0.00 0.00 82 1014.3
20190223173031 32 77 0.0 3.0 0.00 0.00 0.00 83 1014.5
20190223172530 32 73 2.0 2.0 0.00 0.00 0.00 83 1014.6
20190223172031 32 71 2.0 2.0 0.00 0.00 0.00 84 1014.8
20190223171530 32 71 2.0 3.0 0.00 0.00 0.00 83 1014.7
20190223171031 31 104 0.0 3.0 0.00 0.00 0.00 83 1014.8
20190223170531 31 109 0.0 2.0 0.00 0.00 0.00 84 1014.9
20190223170031 31 109 0.0 3.0 0.00 0.00 0.00 86 1015.3
20190223165531 31 109 1.0 3.0 0.00 0.00 0.00 85 1015.5
20190223165031 31 109 2.0 3.0 0.00 0.00 0.00 85 1015.6
20190223164532 31 117 0.0 3.0 0.00 0.00 0.00 85 1015.5
20190223164031 31 117 1.0 3.0 0.00 0.00 0.00 85 1015.6
20190223163531 31 146 0.0 3.0 0.00 0.00 0.00 85 1015.5
20190223163031 31 99 0.0 4.0 0.00 0.00 0.00 85 1015.3
20190223162531 31 144 0.0 4.0 0.00 0.00 0.00 86 1015.4
20190223162032 31 88 1.0 6.0 0.00 0.00 0.00 86 1015.2
20190223161531 30 121 0.0 6.0 0.00 0.00 0.00 85 1015.0
20190223161031 30 120 1.0 6.0 0.00 0.00 0.00 85 1015.0
20190223160531 31 138 1.0 6.0 0.00 0.00 0.00 86 1015.1
20190223160030 30 104 0.0 6.0 0.00 0.00 0.00 87 1015.4
20190223155531 30 112 1.0 3.0 0.00 0.00 0.00 87 1015.5
20190223155031 30 112 0.0 3.0 0.00 0.00 0.00 88 1015.8
20190223154531 30 103 2.0 3.0 0.00 0.00 0.00 88 1015.8
20190223154031 30 91 0.0 3.0 0.00 0.00 0.00 88 1015.9
20190223153532 30 292 0.0 0.0 0.00 0.00 0.00 90 1016.3
20190223153031 29 292 0.0 0.0 0.00 0.00 0.00 90 1016.2
20190223152531 29 292 0.0 0.0 0.00 0.00 0.00 90 1016.4
20190223152031 28 292 0.0 1.0 0.00 0.00 0.00 90 1016.4
20190223151530 28 292 0.0 1.0 0.00 0.00 0.00 91 1016.5
20190223151031 28 292 0.0 0.0 0.00 0.00 0.00 91 1016.5
20190223150531 27 292 0.0 1.0 0.00 0.00 0.00 92 1016.4
20190223150031 27 292 0.0 1.0 0.00 0.00 0.00 92 1016.7
20190223145531 26 292 0.0 0.0 0.00 0.00 0.00 92 1016.5
20190223145032 26 292 0.0 0.0 0.00 0.00 0.00 91 1016.7
20190223144531 26 292 0.0 0.0 0.00 0.00 0.00 92 1016.8
20190223144031 25 292 0.0 0.0 0.00 0.00 0.00 92 1017.0
20190223143531 25 292 0.0 0.0 0.00 0.00 0.00 92 1017.2
20190223143031 25 292 0.0 0.0 0.00 0.00 0.00 92 1017.4
20190223142531 25 292 0.0 0.0 0.00 0.00 0.00 92 1017.5
20190223142031 25 292 0.0 0.0 0.00 0.00 0.00 92 1017.5
20190223141534 25 292 0.0 0.0 0.00 0.00 0.00 92 1017.6
20190223141031 25 292 0.0 0.0 0.00 0.00 0.00 93 1017.7
20190223140532 25 292 0.0 0.0 0.00 0.00 0.00 93 1017.7
20190223140031 24 292 0.0 0.0 0.00 0.00 0.00 93 1017.6
20190223135532 24 292 0.0 0.0 0.00 0.00 0.00 93 1017.6
20190223135031 24 292 0.0 0.0 0.00 0.00 0.00 92 1017.6
20190223134531 24 292 0.0 0.0 0.00 0.00 0.00 92 1017.8
20190223134030 24 292 0.0 0.0 0.00 0.00 0.00 92 1017.9
20190223133530 24 292 0.0 0.0 0.00 0.00 0.00 92 1018.0
20190223133030 24 292 0.0 0.0 0.00 0.00 0.00 92 1017.9
20190223132530 24 292 0.0 0.0 0.00 0.00 0.00 92 1017.9
20190223132030 24 292 0.0 0.0 0.00 0.00 0.00 92 1018.0
20190223131530 24 292 0.0 0.0 0.00 0.00 0.00 92 1018.1
20190223131030 24 292 0.0 0.0 0.00 0.00 0.00 92 1018.1
20190223130530 24 292 0.0 0.0 0.00 0.00 0.00 92 1018.1
20190223130030 24 292 0.0 0.0 0.00 0.00 0.00 92 1018.1
20190223125531 24 292 0.0 0.0 0.00 0.00 0.00 92 1018.0
20190223125030 23 292 0.0 0.0 0.00 0.00 0.00 92 1017.9
20190223124530 23 292 0.0 0.0 0.00 0.00 0.00 92 1018.0
20190223124030 23 292 0.0 0.0 0.00 0.00 0.00 92 1018.0
20190223123530 23 292 0.0 0.0 0.00 0.00 0.00 92 1018.1
20190223123030 23 292 0.0 0.0 0.00 0.00 0.00 91 1018.0
20190223122530 23 292 0.0 0.0 0.00 0.00 0.00 91 1018.2
20190223122030 23 292 0.0 0.0 0.00 0.00 0.00 91 1018.3
20190223121530 23 292 0.0 0.0 0.00 0.00 0.00 91 1018.4
20190223121030 23 292 0.0 0.0 0.00 0.00 0.00 91 1018.5
20190223120530 23 292 0.0 0.0 0.00 0.00 0.00 90 1018.8
20190223120030 23 292 0.0 0.0 0.00 0.00 0.00 91 1018.8
20190223115530 23 292 0.0 0.0 0.00 0.00 0.00 90 1018.8
20190223115030 23 292 0.0 0.0 0.00 0.00 0.00 90 1019.0
20190223114530 23 292 0.0 0.0 0.00 0.00 0.00 90 1019.1
20190223114030 23 292 0.0 0.0 0.00 0.00 0.00 90 1019.0
20190223113530 23 292 0.0 1.0 0.00 0.00 0.00 90 1019.1
20190223113030 23 292 0.0 1.0 0.00 0.00 0.00 90 1019.1
20190223112530 23 292 0.0 0.0 0.00 0.00 0.00 90 1019.1
20190223112030 23 292 0.0 0.0 0.00 0.00 0.00 90 1019.2
20190223111530 23 292 0.0 0.0 0.00 0.00 0.00 90 1019.3
20190223111030 23 292 0.0 0.0 0.00 0.00 0.00 90 1019.3
20190223110530 23 292 0.0 0.0 0.00 0.00 0.00 89 1019.3
20190223110030 23 292 0.0 0.0 0.00 0.00 0.00 89 1019.6
20190223105530 23 292 0.0 0.0 0.00 0.00 0.00 89 1019.8
20190223105030 23 292 0.0 0.0 0.00 0.00 0.00 89 1019.9
20190223104530 23 292 0.0 0.0 0.00 0.00 0.00 88 1019.8
20190223104030 23 292 0.0 0.0 0.00 0.00 0.00 88 1019.8
20190223103530 23 292 0.0 0.0 0.00 0.00 0.00 89 1020.0
20190223103030 23 292 0.0 0.0 0.00 0.00 0.00 88 1020.1
20190223102530 23 292 0.0 2.0 0.00 0.00 0.00 88 1020.1
20190223102030 23 292 0.0 2.0 0.00 0.00 0.00 88 1020.2
20190223101530 23 292 0.0 2.0 0.00 0.00 0.00 87 1019.8
20190223101030 23 292 0.0 2.0 0.00 0.00 0.00 87 1019.7
20190223100530 23 292 0.0 1.0 0.00 0.00 0.00 87 1020.1
20190223100030 23 292 0.0 1.0 0.00 0.00 0.00 87 1020.2
20190223095530 23 292 0.0 2.0 0.00 0.00 0.00 87 1020.2
20190223095030 23 292 0.0 2.0 0.00 0.00 0.00 87 1020.1
20190223094530 23 292 0.0 2.0 0.00 0.00 0.00 87 1020.3
20190223094030 23 292 0.0 2.0 0.00 0.00 0.00 87 1020.5
20190223093530 23 292 0.0 0.0 0.00 0.00 0.00 87 1020.5
20190223093030 23 292 0.0 0.0 0.00 0.00 0.00 86 1020.7
20190223092530 23 292 0.0 0.0 0.00 0.00 0.00 86 1020.7
20190223092030 23 292 0.0 0.0 0.00 0.00 0.00 86 1020.9
20190223091530 23 292 0.0 0.0 0.00 0.00 0.00 86 1020.9
20190223091030 23 292 0.0 0.0 0.00 0.00 0.00 86 1020.9
20190223090530 23 292 0.0 0.0 0.00 0.00 0.00 86 1021.1
20190223090030 23 292 0.0 0.0 0.00 0.00 0.00 86 1021.3
20190223085530 23 292 0.0 0.0 0.00 0.00 0.00 86 1021.4
20190223085030 23 292 0.0 0.0 0.00 0.00 0.00 86 1021.5
20190223084530 23 292 0.0 0.0 0.00 0.00 0.00 86 1021.9
20190223084030 23 292 0.0 0.0 0.00 0.00 0.00 87 1021.9
20190223083530 23 292 0.0 0.0 0.00 0.00 0.00 86 1022.0
20190223083030 23 292 0.0 0.0 0.00 0.00 0.00 86 1022.0
20190223082530 23 292 0.0 0.0 0.00 0.00 0.00 87 1022.1
20190223082030 23 292 0.0 0.0 0.00 0.00 0.00 87 1022.3
20190223081530 23 292 0.0 0.0 0.00 0.00 0.00 86 1022.3
20190223081030 23 292 0.0 0.0 0.00 0.00 0.00 86 1022.4
20190223080530 23 292 0.0 0.0 0.00 0.00 0.00 86 1022.5
20190223080030 23 292 0.0 1.0 0.00 0.00 0.00 85 1022.5
20190223075530 23 292 0.0 1.0 0.00 0.00 0.00 86 1022.7
20190223075030 22 292 0.0 1.0 0.00 0.00 0.00 86 1022.6
20190223074530 22 292 0.0 0.0 0.00 0.00 0.00 86 1022.6
20190223074031 22 292 0.0 0.0 0.00 0.00 0.00 86 1022.7
20190223073530 22 292 0.0 0.0 0.00 0.00 0.00 86 1022.8
20190223073031 22 292 0.0 0.0 0.00 0.00 0.00 86 1022.7
20190223072530 22 292 0.0 0.0 0.00 0.00 0.00 86 1022.9
20190223072030 22 292 0.0 0.0 0.00 0.00 0.00 85 1023.0
20190223071529 22 292 0.0 0.0 0.00 0.00 0.00 85 1023.1
20190223071030 22 292 0.0 0.0 0.00 0.00 0.00 86 1023.1
20190223070530 22 292 0.0 0.0 0.00 0.00 0.00 86 1023.2
20190223070030 22 292 0.0 0.0 0.00 0.00 0.00 86 1023.4
20190223065500 22 292 0.0 1.0 0.00 0.00 0.00 85 1023.5
20190223065030 22 292 0.0 1.0 0.00 0.00 0.00 85 1023.5
20190223064530 22 292 0.0 1.0 0.00 0.00 0.00 85 1023.7
20190223064000 22 292 0.0 1.0 0.00 0.00 0.00 85 1023.7
20190223063530 22 292 0.0 1.0 0.00 0.00 0.00 85 1023.8
20190223063030 22 292 0.0 3.0 0.00 0.00 0.00 85 1023.9
20190223062530 22 292 0.0 3.0 0.00 0.00 0.00 84 1023.8
20190223062030 22 292 2.0 2.0 0.00 0.00 0.00 85 1023.8
20190223061530 22 292 0.0 2.0 0.00 0.00 0.00 85 1023.9
20190223061030 22 292 0.0 2.0 0.00 0.00 0.00 84 1023.9
20190223060530 21 292 1.0 2.0 0.00 0.00 0.00 85 1024.0
20190223060030 21 292 0.0 0.0 0.00 0.00 0.00 85 1023.9
20190223055530 21 292 0.0 0.0 0.00 0.00 0.00 85 1023.7
20190223055030 22 292 0.0 0.0 0.00 0.00 0.00 86 1023.9
20190223054530 21 292 0.0 0.0 0.00 0.00 0.00 86 1023.6
20190223054030 22 292 0.0 0.0 0.00 0.00 0.00 86 1023.7
20190223053530 22 292 0.0 0.0 0.00 0.00 0.00 87 1023.7